Hlavní strana
METAR-TAF:

METAR-TAF

Letiště :

Letiště Bologna

Bologna, Itálie

zeměpisná šířka: 44-32N, zeměpisná délka: 011-18E, výška: 36 m

Aktuální stav počasí

Zpráva byla vytvořena před 27 minutami, v 16:20 UTC
Severoseverovýchodní vítr 5 kt
Teplota 10°C
Vlhkost vzduchu 66%
Tlak 1026 hPa
Viditelnost 10 km a více
Žádná oblačnost pod 1500 m, nevyskytují se cumulonimby.

METAR: LIPE 161620Z 03005KT CAVOK 10/04 Q1026

Čas: 17:47 (16:47 UTC)

Předpověď počasí

Zpráva byla vytvořena před 5 hodinami a 47 minutami, v 11:00 UTC
Předpověď platná od 16 v 12 UTC do 17 v 12 UTC
Severovýchodní vítr 10 kt
Viditelnost: 8000 m
Polojasno ve výšce 4000 ft
Změna
od 16 v 16 UTC do 16 v 18 UTC
Západoseverozápadní vítr 7 kt
Změna
od 17 v 10 UTC do 17 v 12 UTC
Severovýchodní vítr 10 kt

TAF: LIPE 161100Z 1612/1712 05010KT 8000 SCT040 BECMG 1616/1618 29007KT BECMG 1710/1712 04010KT

Stav a předpovědi počasí z více než 4 000 letišť (zprávy METAR a TAF).

Červené a žluté tečky na mapě představují dostupné meteorologické stanice.

Když kurzor umístíte na tečku, zobrazí se název stanice.

Pak kliknutím zobrazíte stav a předpověď počasí.

Chcete-li změnit mapu, kliknutím na zelené tlačítko se znaménkem +mapu přiblížíte, kliknutím na zelené tlačítko se znaménkem – mapu oddálíte a kliknutím na zelené šipky přejdete na sousední mapy.


METAR-TAF: